sensor_id;sensor_type;location;lat;lon;timestamp;P1;durP1;ratioP1;P2;durP2;ratioP2
7719;SDS011;3902;49.474;8.616;2022-11-20T00:01:47;9.80;;;8.90;;
7719;SDS011;3902;49.474;8.616;2022-11-20T00:04:13;10.90;;;9.90;;
7719;SDS011;3902;49.474;8.616;2022-11-20T00:06:39;9.47;;;8.57;;
7719;SDS011;3902;49.474;8.616;2022-11-20T00:09:04;9.40;;;8.50;;
7719;SDS011;3902;49.474;8.616;2022-11-20T00:11:30;10.43;;;9.33;;
7719;SDS011;3902;49.474;8.616;2022-11-20T00:13:57;10.97;;;9.37;;
7719;SDS011;3902;49.474;8.616;2022-11-20T00:16:25;9.93;;;8.93;;
7719;SDS011;3902;49.474;8.616;2022-11-20T00:18:53;10.17;;;9.23;;
7719;SDS011;3902;49.474;8.616;2022-11-20T00:21:19;11.10;;;8.93;;
7719;SDS011;3902;49.474;8.616;2022-11-20T00:23:46;9.30;;;8.40;;
7719;SDS011;3902;49.474;8.616;2022-11-20T00:26:13;9.83;;;8.83;;
7719;SDS011;3902;49.474;8.616;2022-11-20T00:28:42;9.43;;;8.53;;
7719;SDS011;3902;49.474;8.616;2022-11-20T00:31:10;9.50;;;8.60;;
7719;SDS011;3902;49.474;8.616;2022-11-20T00:33:40;11.53;;;10.37;;
7719;SDS011;3902;49.474;8.616;2022-11-20T00:36:07;12.00;;;10.80;;
7719;SDS011;3902;49.474;8.616;2022-11-20T00:38:34;13.90;;;12.50;;
7719;SDS011;3902;49.474;8.616;2022-11-20T00:41:01;12.70;;;11.50;;
7719;SDS011;3902;49.474;8.616;2022-11-20T00:43:29;12.73;;;11.43;;
7719;SDS011;3902;49.474;8.616;2022-11-20T00:45:56;13.07;;;11.77;;
7719;SDS011;3902;49.474;8.616;2022-11-20T00:48:25;13.10;;;11.80;;
7719;SDS011;3902;49.474;8.616;2022-11-20T00:50:51;13.10;;;11.80;;
7719;SDS011;3902;49.474;8.616;2022-11-20T00:53:17;12.10;;;10.90;;
7719;SDS011;3902;49.474;8.616;2022-11-20T00:55:43;12.90;;;11.70;;
7719;SDS011;3902;49.474;8.616;2022-11-20T00:58:16;13.80;;;12.50;;
7719;SDS011;3902;49.474;8.616;2022-11-20T01:00:42;12.13;;;11.03;;
7719;SDS011;3902;49.474;8.616;2022-11-20T01:03:07;13.70;;;12.40;;
7719;SDS011;3902;49.474;8.616;2022-11-20T01:05:34;13.37;;;11.93;;
7719;SDS011;3902;49.474;8.616;2022-11-20T01:08:00;12.27;;;11.07;;
7719;SDS011;3902;49.474;8.616;2022-11-20T01:10:25;12.37;;;10.40;;
7719;SDS011;3902;49.474;8.616;2022-11-20T01:12:51;12.03;;;10.20;;
7719;SDS011;3902;49.474;8.616;2022-11-20T01:15:36;11.30;;;9.27;;
7719;SDS011;3902;49.474;8.616;2022-11-20T01:18:02;11.37;;;9.10;;
7719;SDS011;3902;49.474;8.616;2022-11-20T01:20:28;8.80;;;7.83;;
7719;SDS011;3902;49.474;8.616;2022-11-20T01:22:53;10.13;;;7.67;;
7719;SDS011;3902;49.474;8.616;2022-11-20T01:25:19;9.13;;;7.93;;
7719;SDS011;3902;49.474;8.616;2022-11-20T01:27:44;10.27;;;8.20;;
7719;SDS011;3902;49.474;8.616;2022-11-20T01:30:10;10.40;;;8.27;;
7719;SDS011;3902;49.474;8.616;2022-11-20T01:32:36;12.10;;;9.20;;
7719;SDS011;3902;49.474;8.616;2022-11-20T01:35:01;14.13;;;10.80;;
7719;SDS011;3902;49.474;8.616;2022-11-20T01:37:27;12.80;;;9.93;;
7719;SDS011;3902;49.474;8.616;2022-11-20T01:39:52;11.60;;;9.07;;
7719;SDS011;3902;49.474;8.616;2022-11-20T01:42:18;11.57;;;8.90;;
7719;SDS011;3902;49.474;8.616;2022-11-20T01:48:06;11.20;;;10.00;;
7719;SDS011;3902;49.474;8.616;2022-11-20T01:50:32;12.07;;;10.80;;
7719;SDS011;3902;49.474;8.616;2022-11-20T01:53:02;13.20;;;11.90;;
7719;SDS011;3902;49.474;8.616;2022-11-20T01:55:33;12.93;;;11.53;;
7719;SDS011;3902;49.474;8.616;2022-11-20T01:58:01;13.50;;;12.10;;
7719;SDS011;3902;49.474;8.616;2022-11-20T02:00:27;13.80;;;12.30;;
7719;SDS011;3902;49.474;8.616;2022-11-20T02:02:54;13.57;;;12.00;;
7719;SDS011;3902;49.474;8.616;2022-11-20T02:08:20;12.53;;;11.30;;
7719;SDS011;3902;49.474;8.616;2022-11-20T02:10:46;14.33;;;12.93;;
7719;SDS011;3902;49.474;8.616;2022-11-20T02:13:12;13.93;;;12.53;;
7719;SDS011;3902;49.474;8.616;2022-11-20T02:15:56;14.90;;;13.40;;
7719;SDS011;3902;49.474;8.616;2022-11-20T02:18:22;14.97;;;13.47;;
7719;SDS011;3902;49.474;8.616;2022-11-20T02:20:50;13.87;;;12.40;;
7719;SDS011;3902;49.474;8.616;2022-11-20T02:25:51;13.97;;;12.60;;
7719;SDS011;3902;49.474;8.616;2022-11-20T02:28:18;13.57;;;12.17;;
7719;SDS011;3902;49.474;8.616;2022-11-20T02:30:44;12.83;;;11.43;;
7719;SDS011;3902;49.474;8.616;2022-11-20T02:33:09;11.80;;;10.23;;
7719;SDS011;3902;49.474;8.616;2022-11-20T02:38:01;10.30;;;9.30;;
7719;SDS011;3902;49.474;8.616;2022-11-20T02:40:28;10.20;;;9.20;;
7719;SDS011;3902;49.474;8.616;2022-11-20T02:42:54;10.10;;;9.10;;
7719;SDS011;3902;49.474;8.616;2022-11-20T02:45:20;9.40;;;8.50;;
7719;SDS011;3902;49.474;8.616;2022-11-20T02:47:46;9.90;;;8.60;;
7719;SDS011;3902;49.474;8.616;2022-11-20T02:50:12;10.40;;;9.40;;
7719;SDS011;3902;49.474;8.616;2022-11-20T02:52:37;11.13;;;9.10;;
7719;SDS011;3902;49.474;8.616;2022-11-20T02:55:03;9.77;;;8.77;;
7719;SDS011;3902;49.474;8.616;2022-11-20T02:57:29;8.57;;;7.77;;
7719;SDS011;3902;49.474;8.616;2022-11-20T02:59:54;9.00;;;8.10;;
7719;SDS011;3902;49.474;8.616;2022-11-20T03:02:20;9.97;;;8.93;;
7719;SDS011;3902;49.474;8.616;2022-11-20T03:04:46;9.53;;;8.53;;
7719;SDS011;3902;49.474;8.616;2022-11-20T03:07:11;9.10;;;8.10;;
7719;SDS011;3902;49.474;8.616;2022-11-20T03:09:37;9.47;;;8.57;;
7719;SDS011;3902;49.474;8.616;2022-11-20T03:12:02;9.30;;;8.40;;
7719;SDS011;3902;49.474;8.616;2022-11-20T03:14:28;9.70;;;8.70;;
7719;SDS011;3902;49.474;8.616;2022-11-20T03:16:54;10.07;;;9.07;;
7719;SDS011;3902;49.474;8.616;2022-11-20T03:19:20;9.20;;;8.20;;
7719;SDS011;3902;49.474;8.616;2022-11-20T03:21:46;9.53;;;8.60;;
7719;SDS011;3902;49.474;8.616;2022-11-20T03:24:12;10.30;;;8.70;;
7719;SDS011;3902;49.474;8.616;2022-11-20T03:26:38;9.33;;;8.43;;
7719;SDS011;3902;49.474;8.616;2022-11-20T03:29:04;9.47;;;8.57;;
7719;SDS011;3902;49.474;8.616;2022-11-20T03:31:31;9.10;;;8.17;;
7719;SDS011;3902;49.474;8.616;2022-11-20T03:34:01;8.83;;;7.93;;
7719;SDS011;3902;49.474;8.616;2022-11-20T03:36:27;8.40;;;7.37;;
7719;SDS011;3902;49.474;8.616;2022-11-20T03:38:54;9.10;;;8.20;;
7719;SDS011;3902;49.474;8.616;2022-11-20T03:41:21;8.80;;;7.90;;
7719;SDS011;3902;49.474;8.616;2022-11-20T03:44:10;9.30;;;8.40;;
7719;SDS011;3902;49.474;8.616;2022-11-20T03:46:36;9.00;;;8.10;;
7719;SDS011;3902;49.474;8.616;2022-11-20T03:49:02;9.60;;;8.27;;
7719;SDS011;3902;49.474;8.616;2022-11-20T03:51:29;8.57;;;7.67;;
7719;SDS011;3902;49.474;8.616;2022-11-20T03:53:56;9.17;;;8.27;;
7719;SDS011;3902;49.474;8.616;2022-11-20T03:56:24;8.37;;;7.50;;
7719;SDS011;3902;49.474;8.616;2022-11-20T03:58:57;8.00;;;7.20;;
7719;SDS011;3902;49.474;8.616;2022-11-20T04:01:26;8.13;;;7.33;;
7719;SDS011;3902;49.474;8.616;2022-11-20T04:03:55;8.40;;;7.60;;
7719;SDS011;3902;49.474;8.616;2022-11-20T04:06:23;8.63;;;7.73;;
7719;SDS011;3902;49.474;8.616;2022-11-20T04:08:58;8.70;;;7.80;;
7719;SDS011;3902;49.474;8.616;2022-11-20T04:11:28;8.37;;;7.30;;
7719;SDS011;3902;49.474;8.616;2022-11-20T04:13:59;8.10;;;7.30;;
7719;SDS011;3902;49.474;8.616;2022-11-20T04:16:28;9.03;;;8.10;;
7719;SDS011;3902;49.474;8.616;2022-11-20T04:18:58;8.63;;;7.73;;
7719;SDS011;3902;49.474;8.616;2022-11-20T04:21:25;7.57;;;6.77;;
7719;SDS011;3902;49.474;8.616;2022-11-20T04:23:51;8.90;;;7.93;;
7719;SDS011;3902;49.474;8.616;2022-11-20T04:26:18;8.50;;;7.40;;
7719;SDS011;3902;49.474;8.616;2022-11-20T04:28:44;9.67;;;7.30;;
7719;SDS011;3902;49.474;8.616;2022-11-20T04:31:10;9.20;;;6.83;;
7719;SDS011;3902;49.474;8.616;2022-11-20T04:33:37;8.97;;;8.07;;
7719;SDS011;3902;49.474;8.616;2022-11-20T04:36:05;7.80;;;7.00;;
7719;SDS011;3902;49.474;8.616;2022-11-20T04:38:36;7.10;;;6.40;;
7719;SDS011;3902;49.474;8.616;2022-11-20T04:41:03;8.60;;;7.70;;
7719;SDS011;3902;49.474;8.616;2022-11-20T04:43:31;8.27;;;7.30;;
7719;SDS011;3902;49.474;8.616;2022-11-20T04:45:57;8.87;;;7.33;;
7719;SDS011;3902;49.474;8.616;2022-11-20T04:48:24;7.33;;;6.63;;
7719;SDS011;3902;49.474;8.616;2022-11-20T04:50:50;7.73;;;7.03;;
7719;SDS011;3902;49.474;8.616;2022-11-20T04:53:16;9.10;;;6.80;;
7719;SDS011;3902;49.474;8.616;2022-11-20T04:55:42;8.50;;;7.57;;
7719;SDS011;3902;49.474;8.616;2022-11-20T04:58:08;9.47;;;7.87;;
7719;SDS011;3902;49.474;8.616;2022-11-20T05:00:34;7.80;;;7.00;;
7719;SDS011;3902;49.474;8.616;2022-11-20T05:02:59;8.00;;;6.77;;
7719;SDS011;3902;49.474;8.616;2022-11-20T05:05:25;7.47;;;6.77;;
7719;SDS011;3902;49.474;8.616;2022-11-20T05:07:50;8.27;;;7.20;;
7719;SDS011;3902;49.474;8.616;2022-11-20T05:10:16;7.80;;;7.00;;
7719;SDS011;3902;49.474;8.616;2022-11-20T05:12:41;8.17;;;7.33;;
7719;SDS011;3902;49.474;8.616;2022-11-20T05:15:07;8.10;;;7.30;;
7719;SDS011;3902;49.474;8.616;2022-11-20T05:17:33;8.00;;;7.27;;
7719;SDS011;3902;49.474;8.616;2022-11-20T05:19:59;8.40;;;7.50;;
7719;SDS011;3902;49.474;8.616;2022-11-20T05:22:24;8.13;;;7.30;;
7719;SDS011;3902;49.474;8.616;2022-11-20T05:24:50;8.43;;;7.57;;
7719;SDS011;3902;49.474;8.616;2022-11-20T05:27:15;9.80;;;8.10;;
7719;SDS011;3902;49.474;8.616;2022-11-20T05:29:41;9.43;;;7.77;;
7719;SDS011;3902;49.474;8.616;2022-11-20T05:32:06;7.60;;;6.90;;
7719;SDS011;3902;49.474;8.616;2022-11-20T05:34:34;8.37;;;7.57;;
7719;SDS011;3902;49.474;8.616;2022-11-20T05:37:00;8.50;;;7.70;;
7719;SDS011;3902;49.474;8.616;2022-11-20T05:39:26;8.70;;;7.80;;
7719;SDS011;3902;49.474;8.616;2022-11-20T05:41:52;8.03;;;7.20;;
7719;SDS011;3902;49.474;8.616;2022-11-20T05:44:37;7.77;;;6.97;;
7719;SDS011;3902;49.474;8.616;2022-11-20T05:47:03;8.70;;;7.80;;
7719;SDS011;3902;49.474;8.616;2022-11-20T05:49:29;7.20;;;6.50;;
7719;SDS011;3902;49.474;8.616;2022-11-20T05:51:54;8.77;;;7.87;;
7719;SDS011;3902;49.474;8.616;2022-11-20T05:54:20;8.37;;;7.50;;
7719;SDS011;3902;49.474;8.616;2022-11-20T05:56:45;8.30;;;7.50;;
7719;SDS011;3902;49.474;8.616;2022-11-20T05:59:11;8.60;;;7.80;;
7719;SDS011;3902;49.474;8.616;2022-11-20T06:01:36;7.80;;;7.10;;
7719;SDS011;3902;49.474;8.616;2022-11-20T06:04:02;7.17;;;6.47;;
7719;SDS011;3902;49.474;8.616;2022-11-20T06:06:28;8.20;;;7.40;;
7719;SDS011;3902;49.474;8.616;2022-11-20T06:08:54;8.63;;;7.73;;
7719;SDS011;3902;49.474;8.616;2022-11-20T06:11:20;8.10;;;7.33;;
7719;SDS011;3902;49.474;8.616;2022-11-20T06:13:46;8.27;;;7.47;;
7719;SDS011;3902;49.474;8.616;2022-11-20T06:16:14;9.13;;;8.17;;
7719;SDS011;3902;49.474;8.616;2022-11-20T06:18:41;9.30;;;8.40;;
7719;SDS011;3902;49.474;8.616;2022-11-20T06:21:11;8.07;;;7.27;;
7719;SDS011;3902;49.474;8.616;2022-11-20T06:23:39;8.60;;;7.70;;
7719;SDS011;3902;49.474;8.616;2022-11-20T06:26:09;9.10;;;8.20;;
7719;SDS011;3902;49.474;8.616;2022-11-20T06:28:36;7.97;;;7.17;;
7719;SDS011;3902;49.474;8.616;2022-11-20T06:31:02;8.73;;;7.93;;
7719;SDS011;3902;49.474;8.616;2022-11-20T06:33:28;9.13;;;8.20;;
7719;SDS011;3902;49.474;8.616;2022-11-20T06:35:57;9.17;;;8.30;;
7719;SDS011;3902;49.474;8.616;2022-11-20T06:38:24;9.80;;;8.77;;
7719;SDS011;3902;49.474;8.616;2022-11-20T06:40:51;10.27;;;9.27;;
7719;SDS011;3902;49.474;8.616;2022-11-20T06:43:16;9.40;;;8.50;;
7719;SDS011;3902;49.474;8.616;2022-11-20T06:45:42;10.17;;;9.07;;
7719;SDS011;3902;49.474;8.616;2022-11-20T06:48:07;10.93;;;9.83;;
7719;SDS011;3902;49.474;8.616;2022-11-20T06:50:34;12.50;;;8.73;;
7719;SDS011;3902;49.474;8.616;2022-11-20T06:53:03;10.00;;;9.00;;
7719;SDS011;3902;49.474;8.616;2022-11-20T06:55:30;9.10;;;8.20;;
7719;SDS011;3902;49.474;8.616;2022-11-20T06:57:56;10.43;;;9.33;;
7719;SDS011;3902;49.474;8.616;2022-11-20T07:00:22;9.77;;;8.87;;
7719;SDS011;3902;49.474;8.616;2022-11-20T07:02:48;11.13;;;10.10;;
7719;SDS011;3902;49.474;8.616;2022-11-20T07:05:13;11.00;;;9.90;;
7719;SDS011;3902;49.474;8.616;2022-11-20T07:07:39;11.07;;;9.97;;
7719;SDS011;3902;49.474;8.616;2022-11-20T07:10:05;10.70;;;9.67;;
7719;SDS011;3902;49.474;8.616;2022-11-20T07:12:31;10.43;;;9.33;;
7719;SDS011;3902;49.474;8.616;2022-11-20T07:14:56;10.50;;;9.50;;
7719;SDS011;3902;49.474;8.616;2022-11-20T07:17:22;11.50;;;10.20;;
7719;SDS011;3902;49.474;8.616;2022-11-20T07:19:47;12.70;;;9.87;;
7719;SDS011;3902;49.474;8.616;2022-11-20T07:22:13;10.37;;;9.30;;
7719;SDS011;3902;49.474;8.616;2022-11-20T07:24:38;11.70;;;10.23;;
7719;SDS011;3902;49.474;8.616;2022-11-20T07:27:04;10.60;;;9.60;;
7719;SDS011;3902;49.474;8.616;2022-11-20T07:29:30;9.83;;;8.83;;
7719;SDS011;3902;49.474;8.616;2022-11-20T07:31:56;10.27;;;9.27;;
7719;SDS011;3902;49.474;8.616;2022-11-20T07:34:22;9.60;;;8.70;;
7719;SDS011;3902;49.474;8.616;2022-11-20T07:36:47;10.53;;;9.27;;
7719;SDS011;3902;49.474;8.616;2022-11-20T07:39:13;10.30;;;9.20;;
7719;SDS011;3902;49.474;8.616;2022-11-20T07:41:38;9.97;;;8.97;;
7719;SDS011;3902;49.474;8.616;2022-11-20T07:44:04;10.20;;;9.00;;
7719;SDS011;3902;49.474;8.616;2022-11-20T07:46:30;10.40;;;9.33;;
7719;SDS011;3902;49.474;8.616;2022-11-20T07:48:56;10.97;;;9.70;;
7719;SDS011;3902;49.474;8.616;2022-11-20T07:51:21;9.50;;;8.60;;
7719;SDS011;3902;49.474;8.616;2022-11-20T07:53:47;10.50;;;9.40;;
7719;SDS011;3902;49.474;8.616;2022-11-20T07:56:12;9.20;;;8.30;;
7719;SDS011;3902;49.474;8.616;2022-11-20T07:58:39;10.30;;;9.20;;
7719;SDS011;3902;49.474;8.616;2022-11-20T08:01:05;9.93;;;8.90;;
7719;SDS011;3902;49.474;8.616;2022-11-20T08:03:32;9.80;;;8.80;;
7719;SDS011;3902;49.474;8.616;2022-11-20T08:05:58;10.10;;;9.07;;
7719;SDS011;3902;49.474;8.616;2022-11-20T08:08:25;10.50;;;9.50;;
7719;SDS011;3902;49.474;8.616;2022-11-20T08:10:51;10.53;;;8.70;;
7719;SDS011;3902;49.474;8.616;2022-11-20T08:13:16;9.73;;;8.73;;
7719;SDS011;3902;49.474;8.616;2022-11-20T08:16:00;10.00;;;9.00;;
7719;SDS011;3902;49.474;8.616;2022-11-20T08:18:26;9.60;;;8.70;;
7719;SDS011;3902;49.474;8.616;2022-11-20T08:20:52;9.93;;;8.93;;
7719;SDS011;3902;49.474;8.616;2022-11-20T08:23:17;10.67;;;9.57;;
7719;SDS011;3902;49.474;8.616;2022-11-20T08:25:43;10.07;;;9.07;;
7719;SDS011;3902;49.474;8.616;2022-11-20T08:28:09;11.47;;;9.33;;
7719;SDS011;3902;49.474;8.616;2022-11-20T08:30:35;9.57;;;8.60;;
7719;SDS011;3902;49.474;8.616;2022-11-20T08:33:08;9.73;;;8.30;;
7719;SDS011;3902;49.474;8.616;2022-11-20T08:35:37;10.90;;;9.80;;
7719;SDS011;3902;49.474;8.616;2022-11-20T08:38:03;10.33;;;9.33;;
7719;SDS011;3902;49.474;8.616;2022-11-20T08:40:30;10.43;;;9.43;;
7719;SDS011;3902;49.474;8.616;2022-11-20T08:42:55;11.77;;;10.57;;
7719;SDS011;3902;49.474;8.616;2022-11-20T08:45:21;10.83;;;9.73;;
7719;SDS011;3902;49.474;8.616;2022-11-20T08:47:47;11.70;;;10.37;;
7719;SDS011;3902;49.474;8.616;2022-11-20T08:50:14;14.90;;;12.53;;
7719;SDS011;3902;49.474;8.616;2022-11-20T08:52:40;12.53;;;11.30;;
7719;SDS011;3902;49.474;8.616;2022-11-20T08:55:06;12.43;;;11.13;;
7719;SDS011;3902;49.474;8.616;2022-11-20T08:57:33;13.53;;;11.47;;
7719;SDS011;3902;49.474;8.616;2022-11-20T08:59:59;11.60;;;10.40;;
7719;SDS011;3902;49.474;8.616;2022-11-20T09:02:25;12.87;;;11.17;;
7719;SDS011;3902;49.474;8.616;2022-11-20T09:04:51;11.97;;;10.70;;
7719;SDS011;3902;49.474;8.616;2022-11-20T09:07:18;12.00;;;10.80;;
7719;SDS011;3902;49.474;8.616;2022-11-20T09:09:44;13.03;;;11.63;;
7719;SDS011;3902;49.474;8.616;2022-11-20T09:12:10;12.30;;;11.00;;
7719;SDS011;3902;49.474;8.616;2022-11-20T09:14:35;13.50;;;12.00;;
7719;SDS011;3902;49.474;8.616;2022-11-20T09:17:01;13.23;;;11.20;;
7719;SDS011;3902;49.474;8.616;2022-11-20T09:19:26;11.93;;;10.73;;
7719;SDS011;3902;49.474;8.616;2022-11-20T09:21:52;13.27;;;11.70;;
7719;SDS011;3902;49.474;8.616;2022-11-20T09:24:18;12.83;;;11.47;;
7719;SDS011;3902;49.474;8.616;2022-11-20T09:26:44;12.13;;;10.83;;
7719;SDS011;3902;49.474;8.616;2022-11-20T09:29:09;12.63;;;11.33;;
7719;SDS011;3902;49.474;8.616;2022-11-20T09:31:35;11.80;;;10.60;;
7719;SDS011;3902;49.474;8.616;2022-11-20T09:34:01;13.20;;;11.80;;
7719;SDS011;3902;49.474;8.616;2022-11-20T09:36:26;13.03;;;11.60;;
7719;SDS011;3902;49.474;8.616;2022-11-20T09:38:52;12.70;;;11.40;;
7719;SDS011;3902;49.474;8.616;2022-11-20T09:44:25;14.97;;;12.30;;
7719;SDS011;3902;49.474;8.616;2022-11-20T09:50:02;18.40;;;13.87;;
7719;SDS011;3902;49.474;8.616;2022-11-20T09:55:32;15.67;;;13.10;;
7719;SDS011;3902;49.474;8.616;2022-11-20T09:58:00;15.77;;;14.07;;
7719;SDS011;3902;49.474;8.616;2022-11-20T10:00:26;16.00;;;14.30;;
7719;SDS011;3902;49.474;8.616;2022-11-20T10:05:30;18.60;;;15.00;;
7719;SDS011;3902;49.474;8.616;2022-11-20T10:08:10;20.70;;;15.43;;
7719;SDS011;3902;49.474;8.616;2022-11-20T10:10:47;18.10;;;14.80;;
7719;SDS011;3902;49.474;8.616;2022-11-20T10:21:21;23.67;;;17.97;;
7719;SDS011;3902;49.474;8.616;2022-11-20T10:24:11;23.27;;;19.30;;
7719;SDS011;3902;49.474;8.616;2022-11-20T10:29:27;24.53;;;19.97;;
7719;SDS011;3902;49.474;8.616;2022-11-20T10:32:00;22.00;;;18.33;;
7719;SDS011;3902;49.474;8.616;2022-11-20T10:34:45;22.97;;;18.00;;
7719;SDS011;3902;49.474;8.616;2022-11-20T10:37:20;21.50;;;17.30;;
7719;SDS011;3902;49.474;8.616;2022-11-20T10:40:05;20.00;;;17.07;;
7719;SDS011;3902;49.474;8.616;2022-11-20T10:42:49;19.47;;;16.03;;
7719;SDS011;3902;49.474;8.616;2022-11-20T10:47:50;20.87;;;17.10;;
7719;SDS011;3902;49.474;8.616;2022-11-20T10:50:19;21.83;;;18.03;;
7719;SDS011;3902;49.474;8.616;2022-11-20T10:53:00;21.23;;;17.70;;
7719;SDS011;3902;49.474;8.616;2022-11-20T10:58:10;21.83;;;17.77;;
7719;SDS011;3902;49.474;8.616;2022-11-20T11:00:39;25.50;;;19.17;;
7719;SDS011;3902;49.474;8.616;2022-11-20T11:03:14;26.23;;;19.03;;
7719;SDS011;3902;49.474;8.616;2022-11-20T11:05:50;23.47;;;19.30;;
7719;SDS011;3902;49.474;8.616;2022-11-20T11:08:21;24.60;;;19.57;;
7719;SDS011;3902;49.474;8.616;2022-11-20T11:10:51;26.13;;;19.10;;
7719;SDS011;3902;49.474;8.616;2022-11-20T11:13:27;24.90;;;20.37;;
7719;SDS011;3902;49.474;8.616;2022-11-20T11:15:54;22.57;;;18.73;;
7719;SDS011;3902;49.474;8.616;2022-11-20T11:20:52;21.97;;;17.10;;
7719;SDS011;3902;49.474;8.616;2022-11-20T11:23:38;22.10;;;17.23;;
7719;SDS011;3902;49.474;8.616;2022-11-20T11:26:06;25.53;;;19.57;;
7719;SDS011;3902;49.474;8.616;2022-11-20T11:28:52;19.90;;;15.93;;
7719;SDS011;3902;49.474;8.616;2022-11-20T11:31:25;24.27;;;18.07;;
7719;SDS011;3902;49.474;8.616;2022-11-20T11:34:03;27.87;;;21.00;;
7719;SDS011;3902;49.474;8.616;2022-11-20T11:36:39;25.07;;;20.20;;
7719;SDS011;3902;49.474;8.616;2022-11-20T11:39:08;23.17;;;20.00;;
7719;SDS011;3902;49.474;8.616;2022-11-20T11:41:39;23.63;;;19.07;;
7719;SDS011;3902;49.474;8.616;2022-11-20T11:44:21;20.80;;;17.67;;
7719;SDS011;3902;49.474;8.616;2022-11-20T11:47:11;22.27;;;18.07;;
7719;SDS011;3902;49.474;8.616;2022-11-20T11:50:14;23.70;;;17.20;;
7719;SDS011;3902;49.474;8.616;2022-11-20T11:52:54;19.27;;;15.40;;
7719;SDS011;3902;49.474;8.616;2022-11-20T11:58:33;14.97;;;12.87;;
7719;SDS011;3902;49.474;8.616;2022-11-20T12:03:35;14.00;;;12.23;;
7719;SDS011;3902;49.474;8.616;2022-11-20T12:06:09;16.03;;;12.57;;
7719;SDS011;3902;49.474;8.616;2022-11-20T12:08:45;14.93;;;11.80;;
7719;SDS011;3902;49.474;8.616;2022-11-20T12:11:13;13.03;;;11.60;;
7719;SDS011;3902;49.474;8.616;2022-11-20T12:13:58;13.70;;;11.53;;
7719;SDS011;3902;49.474;8.616;2022-11-20T12:16:30;13.93;;;12.43;;
7719;SDS011;3902;49.474;8.616;2022-11-20T12:18:59;13.17;;;11.77;;
7719;SDS011;3902;49.474;8.616;2022-11-20T12:21:35;12.40;;;11.10;;
7719;SDS011;3902;49.474;8.616;2022-11-20T12:24:29;12.77;;;11.13;;
7719;SDS011;3902;49.474;8.616;2022-11-20T12:32:36;11.43;;;10.03;;
7719;SDS011;3902;49.474;8.616;2022-11-20T12:38:23;10.73;;;9.63;;
7719;SDS011;3902;49.474;8.616;2022-11-20T12:41:22;12.17;;;10.87;;
7719;SDS011;3902;49.474;8.616;2022-11-20T13:07:30;12.30;;;9.17;;
7719;SDS011;3902;49.474;8.616;2022-11-20T13:09:57;10.93;;;9.83;;
7719;SDS011;3902;49.474;8.616;2022-11-20T13:12:27;10.90;;;9.80;;
7719;SDS011;3902;49.474;8.616;2022-11-20T13:17:43;10.17;;;9.17;;
7719;SDS011;3902;49.474;8.616;2022-11-20T13:20:13;9.93;;;8.93;;
7719;SDS011;3902;49.474;8.616;2022-11-20T13:27:54;8.90;;;7.20;;
7719;SDS011;3902;49.474;8.616;2022-11-20T13:30:22;11.27;;;8.73;;
7719;SDS011;3902;49.474;8.616;2022-11-20T13:32:56;8.43;;;7.43;;
7719;SDS011;3902;49.474;8.616;2022-11-20T13:35:28;13.20;;;9.80;;
7719;SDS011;3902;49.474;8.616;2022-11-20T13:38:09;11.17;;;9.60;;
7719;SDS011;3902;49.474;8.616;2022-11-20T13:40:50;10.87;;;9.60;;
7719;SDS011;3902;49.474;8.616;2022-11-20T13:46:04;10.67;;;9.53;;
7719;SDS011;3902;49.474;8.616;2022-11-20T13:48:32;10.40;;;8.80;;
7719;SDS011;3902;49.474;8.616;2022-11-20T13:51:09;6.80;;;5.07;;
7719;SDS011;3902;49.474;8.616;2022-11-20T13:56:43;8.33;;;5.70;;
7719;SDS011;3902;49.474;8.616;2022-11-20T14:02:00;6.50;;;3.67;;
7719;SDS011;3902;49.474;8.616;2022-11-20T14:04:28;7.43;;;3.80;;
7719;SDS011;3902;49.474;8.616;2022-11-20T14:06:56;5.47;;;2.93;;
7719;SDS011;3902;49.474;8.616;2022-11-20T14:09:27;4.60;;;3.47;;
7719;SDS011;3902;49.474;8.616;2022-11-20T14:11:54;3.83;;;3.40;;
7719;SDS011;3902;49.474;8.616;2022-11-20T14:14:20;3.03;;;2.73;;
7719;SDS011;3902;49.474;8.616;2022-11-20T14:16:48;8.20;;;3.77;;
7719;SDS011;3902;49.474;8.616;2022-11-20T14:19:25;3.53;;;2.70;;
7719;SDS011;3902;49.474;8.616;2022-11-20T14:21:54;4.30;;;3.73;;
7719;SDS011;3902;49.474;8.616;2022-11-20T14:24:32;3.80;;;2.80;;
7719;SDS011;3902;49.474;8.616;2022-11-20T14:26:57;3.00;;;2.43;;
7719;SDS011;3902;49.474;8.616;2022-11-20T14:29:29;3.93;;;2.80;;
7719;SDS011;3902;49.474;8.616;2022-11-20T14:31:59;8.43;;;2.50;;
7719;SDS011;3902;49.474;8.616;2022-11-20T14:34:27;3.90;;;2.47;;
7719;SDS011;3902;49.474;8.616;2022-11-20T14:36:57;3.70;;;1.90;;
7719;SDS011;3902;49.474;8.616;2022-11-20T14:39:34;2.93;;;2.20;;
7719;SDS011;3902;49.474;8.616;2022-11-20T14:42:01;3.03;;;2.00;;
7719;SDS011;3902;49.474;8.616;2022-11-20T14:44:27;3.83;;;2.27;;
7719;SDS011;3902;49.474;8.616;2022-11-20T14:46:56;2.50;;;2.10;;
7719;SDS011;3902;49.474;8.616;2022-11-20T14:49:23;2.63;;;1.77;;
7719;SDS011;3902;49.474;8.616;2022-11-20T14:51:59;3.70;;;2.17;;
7719;SDS011;3902;49.474;8.616;2022-11-20T14:54:26;3.77;;;2.00;;
7719;SDS011;3902;49.474;8.616;2022-11-20T14:56:53;5.50;;;2.30;;
7719;SDS011;3902;49.474;8.616;2022-11-20T14:59:24;2.83;;;2.20;;
7719;SDS011;3902;49.474;8.616;2022-11-20T15:01:54;3.23;;;2.50;;
7719;SDS011;3902;49.474;8.616;2022-11-20T15:04:21;4.03;;;2.53;;
7719;SDS011;3902;49.474;8.616;2022-11-20T15:06:51;2.77;;;2.30;;
7719;SDS011;3902;49.474;8.616;2022-11-20T15:09:18;3.47;;;2.53;;
7719;SDS011;3902;49.474;8.616;2022-11-20T15:11:52;6.00;;;3.30;;
7719;SDS011;3902;49.474;8.616;2022-11-20T15:14:23;3.30;;;3.00;;
7719;SDS011;3902;49.474;8.616;2022-11-20T15:16:50;5.30;;;3.40;;
7719;SDS011;3902;49.474;8.616;2022-11-20T15:19:22;4.97;;;3.50;;
7719;SDS011;3902;49.474;8.616;2022-11-20T15:21:49;6.00;;;3.70;;
7719;SDS011;3902;49.474;8.616;2022-11-20T15:24:16;7.73;;;4.40;;
7719;SDS011;3902;49.474;8.616;2022-11-20T15:26:42;7.57;;;4.40;;
7719;SDS011;3902;49.474;8.616;2022-11-20T15:29:08;6.17;;;5.30;;
7719;SDS011;3902;49.474;8.616;2022-11-20T15:31:36;8.30;;;4.80;;
7719;SDS011;3902;49.474;8.616;2022-11-20T15:34:02;6.53;;;4.47;;
7719;SDS011;3902;49.474;8.616;2022-11-20T15:36:30;8.77;;;4.93;;
7719;SDS011;3902;49.474;8.616;2022-11-20T15:38:55;8.87;;;5.77;;
7719;SDS011;3902;49.474;8.616;2022-11-20T15:41:21;14.40;;;8.80;;
7719;SDS011;3902;49.474;8.616;2022-11-20T15:43:46;13.30;;;8.40;;
7719;SDS011;3902;49.474;8.616;2022-11-20T15:46:16;13.67;;;9.17;;
7719;SDS011;3902;49.474;8.616;2022-11-20T15:48:49;11.70;;;7.67;;
7719;SDS011;3902;49.474;8.616;2022-11-20T15:53:58;11.17;;;7.43;;
7719;SDS011;3902;49.474;8.616;2022-11-20T15:56:24;10.20;;;6.00;;
7719;SDS011;3902;49.474;8.616;2022-11-20T15:58:50;6.73;;;4.83;;
7719;SDS011;3902;49.474;8.616;2022-11-20T16:01:17;5.30;;;3.93;;
7719;SDS011;3902;49.474;8.616;2022-11-20T16:03:45;6.10;;;4.30;;
7719;SDS011;3902;49.474;8.616;2022-11-20T16:06:11;6.17;;;3.60;;
7719;SDS011;3902;49.474;8.616;2022-11-20T16:08:36;4.93;;;3.33;;
7719;SDS011;3902;49.474;8.616;2022-11-20T16:11:02;3.97;;;3.03;;
7719;SDS011;3902;49.474;8.616;2022-11-20T16:13:28;3.23;;;2.93;;
7719;SDS011;3902;49.474;8.616;2022-11-20T16:16:22;4.13;;;3.43;;
7719;SDS011;3902;49.474;8.616;2022-11-20T16:18:50;3.60;;;2.90;;
7719;SDS011;3902;49.474;8.616;2022-11-20T16:21:16;7.97;;;4.93;;
7719;SDS011;3902;49.474;8.616;2022-11-20T16:23:42;12.80;;;8.83;;
7719;SDS011;3902;49.474;8.616;2022-11-20T16:26:10;13.40;;;9.70;;
7719;SDS011;3902;49.474;8.616;2022-11-20T16:28:37;13.47;;;9.90;;
7719;SDS011;3902;49.474;8.616;2022-11-20T16:31:09;8.63;;;6.43;;
7719;SDS011;3902;49.474;8.616;2022-11-20T16:33:39;9.50;;;6.27;;
7719;SDS011;3902;49.474;8.616;2022-11-20T16:36:11;7.03;;;4.90;;
7719;SDS011;3902;49.474;8.616;2022-11-20T16:38:38;7.17;;;6.03;;
7719;SDS011;3902;49.474;8.616;2022-11-20T16:41:04;7.20;;;5.80;;
7719;SDS011;3902;49.474;8.616;2022-11-20T16:43:30;7.17;;;5.50;;
7719;SDS011;3902;49.474;8.616;2022-11-20T16:45:55;4.77;;;4.27;;
7719;SDS011;3902;49.474;8.616;2022-11-20T16:48:21;5.73;;;4.30;;
7719;SDS011;3902;49.474;8.616;2022-11-20T16:53:12;7.13;;;5.60;;
7719;SDS011;3902;49.474;8.616;2022-11-20T16:55:38;9.07;;;5.47;;